sensor_id;sensor_type;location;lat;lon;timestamp;temperature;humidity
46440;DHT22;32138;50.966;6.968;2022-09-29T00:01:31;12.20;91.20
46440;DHT22;32138;50.966;6.968;2022-09-29T00:03:32;12.30;91.40
46440;DHT22;32138;50.966;6.968;2022-09-29T00:05:33;12.20;91.00
46440;DHT22;32138;50.966;6.968;2022-09-29T00:07:34;12.30;90.90
46440;DHT22;32138;50.966;6.968;2022-09-29T00:09:34;12.20;91.20
46440;DHT22;32138;50.966;6.968;2022-09-29T00:11:35;12.20;91.40
46440;DHT22;32138;50.966;6.968;2022-09-29T00:13:36;12.20;91.50
46440;DHT22;32138;50.966;6.968;2022-09-29T00:15:37;12.20;91.70
46440;DHT22;32138;50.966;6.968;2022-09-29T00:17:37;12.10;91.80
46440;DHT22;32138;50.966;6.968;2022-09-29T00:19:39;12.10;91.70
46440;DHT22;32138;50.966;6.968;2022-09-29T00:21:39;12.10;91.70
46440;DHT22;32138;50.966;6.968;2022-09-29T00:23:40;12.10;91.50
46440;DHT22;32138;50.966;6.968;2022-09-29T00:25:41;12.10;91.70
46440;DHT22;32138;50.966;6.968;2022-09-29T00:27:42;12.10;91.90
46440;DHT22;32138;50.966;6.968;2022-09-29T00:29:43;12.10;91.50
46440;DHT22;32138;50.966;6.968;2022-09-29T00:31:44;12.10;91.30
46440;DHT22;32138;50.966;6.968;2022-09-29T00:33:45;12.10;91.30
46440;DHT22;32138;50.966;6.968;2022-09-29T00:35:56;12.10;91.30
46440;DHT22;32138;50.966;6.968;2022-09-29T00:38:00;12.00;91.50
46440;DHT22;32138;50.966;6.968;2022-09-29T00:40:02;11.90;91.50
46440;DHT22;32138;50.966;6.968;2022-09-29T00:42:03;11.90;91.50
46440;DHT22;32138;50.966;6.968;2022-09-29T00:46:16;11.90;91.60
46440;DHT22;32138;50.966;6.968;2022-09-29T00:48:28;11.90;91.60
46440;DHT22;32138;50.966;6.968;2022-09-29T00:52:43;11.80;91.60
46440;DHT22;32138;50.966;6.968;2022-09-29T00:55:09;11.80;91.70
46440;DHT22;32138;50.966;6.968;2022-09-29T00:57:16;11.90;91.40
46440;DHT22;32138;50.966;6.968;2022-09-29T00:59:24;11.90;91.30
46440;DHT22;32138;50.966;6.968;2022-09-29T01:01:30;11.90;91.30
46440;DHT22;32138;50.966;6.968;2022-09-29T01:03:36;11.90;91.30
46440;DHT22;32138;50.966;6.968;2022-09-29T01:05:43;11.80;91.30
46440;DHT22;32138;50.966;6.968;2022-09-29T01:07:46;11.80;91.50
46440;DHT22;32138;50.966;6.968;2022-09-29T01:09:49;11.80;91.60
46440;DHT22;32138;50.966;6.968;2022-09-29T01:11:55;11.70;91.40
46440;DHT22;32138;50.966;6.968;2022-09-29T01:14:00;11.50;91.60
46440;DHT22;32138;50.966;6.968;2022-09-29T01:16:04;11.40;91.90
46440;DHT22;32138;50.966;6.968;2022-09-29T01:18:05;11.50;91.70
46440;DHT22;32138;50.966;6.968;2022-09-29T01:22:55;11.60;91.40
46440;DHT22;32138;50.966;6.968;2022-09-29T01:30:19;11.50;91.60
46440;DHT22;32138;50.966;6.968;2022-09-29T01:35:05;11.60;91.30
46440;DHT22;32138;50.966;6.968;2022-09-29T01:37:17;11.30;91.20
46440;DHT22;32138;50.966;6.968;2022-09-29T01:39:35;11.40;91.60
46440;DHT22;32138;50.966;6.968;2022-09-29T01:42:17;11.50;91.40
46440;DHT22;32138;50.966;6.968;2022-09-29T01:46:43;11.60;91.30
46440;DHT22;32138;50.966;6.968;2022-09-29T01:48:51;11.50;91.50
46440;DHT22;32138;50.966;6.968;2022-09-29T01:50:57;11.50;91.30
46440;DHT22;32138;50.966;6.968;2022-09-29T01:53:06;11.50;91.40
46440;DHT22;32138;50.966;6.968;2022-09-29T01:55:15;11.30;91.30
46440;DHT22;32138;50.966;6.968;2022-09-29T01:57:31;11.20;91.60
46440;DHT22;32138;50.966;6.968;2022-09-29T02:01:58;11.30;91.40
46440;DHT22;32138;50.966;6.968;2022-09-29T02:04:08;11.20;91.60
46440;DHT22;32138;50.966;6.968;2022-09-29T02:06:24;11.20;91.60
46440;DHT22;32138;50.966;6.968;2022-09-29T02:08:37;11.10;91.60
46440;DHT22;32138;50.966;6.968;2022-09-29T02:10:49;11.10;91.60
46440;DHT22;32138;50.966;6.968;2022-09-29T02:12:53;11.00;91.80
46440;DHT22;32138;50.966;6.968;2022-09-29T02:14:56;11.10;91.80
46440;DHT22;32138;50.966;6.968;2022-09-29T02:17:07;11.10;91.80
46440;DHT22;32138;50.966;6.968;2022-09-29T02:21:21;11.20;91.50
46440;DHT22;32138;50.966;6.968;2022-09-29T02:23:22;11.20;91.70
46440;DHT22;32138;50.966;6.968;2022-09-29T02:25:23;11.30;91.30
46440;DHT22;32138;50.966;6.968;2022-09-29T02:27:26;11.10;91.30
46440;DHT22;32138;50.966;6.968;2022-09-29T02:29:29;11.10;91.80
46440;DHT22;32138;50.966;6.968;2022-09-29T02:31:32;11.20;91.20
46440;DHT22;32138;50.966;6.968;2022-09-29T02:33:33;11.00;91.40
46440;DHT22;32138;50.966;6.968;2022-09-29T02:35:48;11.00;91.50
46440;DHT22;32138;50.966;6.968;2022-09-29T02:40:52;11.00;91.50
46440;DHT22;32138;50.966;6.968;2022-09-29T02:48:01;11.00;91.20
46440;DHT22;32138;50.966;6.968;2022-09-29T02:53:03;10.90;91.20
46440;DHT22;32138;50.966;6.968;2022-09-29T02:55:42;11.00;91.10
46440;DHT22;32138;50.966;6.968;2022-09-29T02:57:52;11.00;91.20
46440;DHT22;32138;50.966;6.968;2022-09-29T03:02:08;10.90;91.10
46440;DHT22;32138;50.966;6.968;2022-09-29T03:04:09;10.70;91.00
46440;DHT22;32138;50.966;6.968;2022-09-29T03:06:10;10.70;91.20
46440;DHT22;32138;50.966;6.968;2022-09-29T03:08:11;10.60;91.20
46440;DHT22;32138;50.966;6.968;2022-09-29T03:10:13;10.50;91.40
46440;DHT22;32138;50.966;6.968;2022-09-29T03:12:15;10.50;91.30
46440;DHT22;32138;50.966;6.968;2022-09-29T03:14:17;10.50;91.30
46440;DHT22;32138;50.966;6.968;2022-09-29T03:16:18;10.50;91.10
46440;DHT22;32138;50.966;6.968;2022-09-29T03:18:19;10.40;91.00
46440;DHT22;32138;50.966;6.968;2022-09-29T03:20:22;10.50;91.10
46440;DHT22;32138;50.966;6.968;2022-09-29T03:22:24;10.60;91.20
46440;DHT22;32138;50.966;6.968;2022-09-29T03:24:24;10.50;91.00
46440;DHT22;32138;50.966;6.968;2022-09-29T03:26:25;10.50;90.90
46440;DHT22;32138;50.966;6.968;2022-09-29T03:28:26;10.60;91.00
46440;DHT22;32138;50.966;6.968;2022-09-29T03:30:27;10.60;91.00
46440;DHT22;32138;50.966;6.968;2022-09-29T03:32:28;10.60;90.70
46440;DHT22;32138;50.966;6.968;2022-09-29T03:34:29;10.50;91.10
46440;DHT22;32138;50.966;6.968;2022-09-29T03:36:30;10.50;90.90
46440;DHT22;32138;50.966;6.968;2022-09-29T03:38:32;10.40;90.90
46440;DHT22;32138;50.966;6.968;2022-09-29T03:40:32;10.60;90.90
46440;DHT22;32138;50.966;6.968;2022-09-29T03:42:33;10.50;90.80
46440;DHT22;32138;50.966;6.968;2022-09-29T03:44:34;10.60;90.60
46440;DHT22;32138;50.966;6.968;2022-09-29T03:46:35;10.60;90.60
46440;DHT22;32138;50.966;6.968;2022-09-29T03:48:41;10.60;90.30
46440;DHT22;32138;50.966;6.968;2022-09-29T03:50:44;10.50;90.30
46440;DHT22;32138;50.966;6.968;2022-09-29T03:52:45;10.40;90.40
46440;DHT22;32138;50.966;6.968;2022-09-29T03:54:46;10.10;90.60
46440;DHT22;32138;50.966;6.968;2022-09-29T03:56:46;10.10;90.70
46440;DHT22;32138;50.966;6.968;2022-09-29T03:58:47;10.20;90.80
46440;DHT22;32138;50.966;6.968;2022-09-29T04:00:48;10.20;90.50
46440;DHT22;32138;50.966;6.968;2022-09-29T04:02:49;10.10;90.50
46440;DHT22;32138;50.966;6.968;2022-09-29T04:04:50;10.20;90.50
46440;DHT22;32138;50.966;6.968;2022-09-29T04:06:50;10.30;90.60
46440;DHT22;32138;50.966;6.968;2022-09-29T04:08:51;10.30;90.20
46440;DHT22;32138;50.966;6.968;2022-09-29T04:10:52;10.20;90.20
46440;DHT22;32138;50.966;6.968;2022-09-29T04:12:53;10.10;90.30
46440;DHT22;32138;50.966;6.968;2022-09-29T04:14:53;10.10;90.50
46440;DHT22;32138;50.966;6.968;2022-09-29T04:16:54;10.10;90.50
46440;DHT22;32138;50.966;6.968;2022-09-29T04:18:55;10.20;90.40
46440;DHT22;32138;50.966;6.968;2022-09-29T04:20:56;10.30;90.10
46440;DHT22;32138;50.966;6.968;2022-09-29T04:23:00;10.20;90.10
46440;DHT22;32138;50.966;6.968;2022-09-29T04:25:00;10.10;90.20
46440;DHT22;32138;50.966;6.968;2022-09-29T04:27:01;9.90;90.70
46440;DHT22;32138;50.966;6.968;2022-09-29T04:29:02;10.10;90.40
46440;DHT22;32138;50.966;6.968;2022-09-29T04:31:03;10.10;90.20
46440;DHT22;32138;50.966;6.968;2022-09-29T04:33:04;10.10;90.10
46440;DHT22;32138;50.966;6.968;2022-09-29T04:35:06;10.10;90.30
46440;DHT22;32138;50.966;6.968;2022-09-29T04:37:07;10.00;90.40
46440;DHT22;32138;50.966;6.968;2022-09-29T04:39:10;10.00;90.20
46440;DHT22;32138;50.966;6.968;2022-09-29T04:41:12;9.70;90.70
46440;DHT22;32138;50.966;6.968;2022-09-29T04:43:13;9.80;90.80
46440;DHT22;32138;50.966;6.968;2022-09-29T04:45:14;9.80;90.60
46440;DHT22;32138;50.966;6.968;2022-09-29T04:47:15;9.70;90.60
46440;DHT22;32138;50.966;6.968;2022-09-29T04:49:17;9.80;90.60
46440;DHT22;32138;50.966;6.968;2022-09-29T04:51:18;9.70;90.80
46440;DHT22;32138;50.966;6.968;2022-09-29T04:53:19;9.70;90.70
46440;DHT22;32138;50.966;6.968;2022-09-29T04:55:20;9.50;90.80
46440;DHT22;32138;50.966;6.968;2022-09-29T04:57:20;9.60;91.00
46440;DHT22;32138;50.966;6.968;2022-09-29T04:59:21;9.60;90.90
46440;DHT22;32138;50.966;6.968;2022-09-29T05:01:22;9.70;90.60
46440;DHT22;32138;50.966;6.968;2022-09-29T05:03:23;9.70;90.70
46440;DHT22;32138;50.966;6.968;2022-09-29T05:05:25;9.60;90.70
46440;DHT22;32138;50.966;6.968;2022-09-29T05:07:26;9.60;90.80
46440;DHT22;32138;50.966;6.968;2022-09-29T05:09:27;9.60;90.80
46440;DHT22;32138;50.966;6.968;2022-09-29T05:11:28;9.70;90.80
46440;DHT22;32138;50.966;6.968;2022-09-29T05:13:28;9.50;90.70
46440;DHT22;32138;50.966;6.968;2022-09-29T05:15:29;9.50;90.90
46440;DHT22;32138;50.966;6.968;2022-09-29T05:17:30;9.50;90.90
46440;DHT22;32138;50.966;6.968;2022-09-29T05:19:31;9.50;90.90
46440;DHT22;32138;50.966;6.968;2022-09-29T05:21:31;9.70;90.70
46440;DHT22;32138;50.966;6.968;2022-09-29T05:23:32;9.60;90.60
46440;DHT22;32138;50.966;6.968;2022-09-29T05:25:33;9.60;90.80
46440;DHT22;32138;50.966;6.968;2022-09-29T05:27:35;9.50;90.80
46440;DHT22;32138;50.966;6.968;2022-09-29T05:29:36;9.70;90.80
46440;DHT22;32138;50.966;6.968;2022-09-29T05:31:37;9.70;90.70
46440;DHT22;32138;50.966;6.968;2022-09-29T05:33:38;9.70;90.70
46440;DHT22;32138;50.966;6.968;2022-09-29T05:35:39;9.80;90.60
46440;DHT22;32138;50.966;6.968;2022-09-29T05:37:40;9.70;90.70
46440;DHT22;32138;50.966;6.968;2022-09-29T05:39:41;9.50;90.50
46440;DHT22;32138;50.966;6.968;2022-09-29T05:41:41;9.40;90.70
46440;DHT22;32138;50.966;6.968;2022-09-29T05:43:42;9.60;90.60
46440;DHT22;32138;50.966;6.968;2022-09-29T05:45:43;9.70;90.40
46440;DHT22;32138;50.966;6.968;2022-09-29T05:47:44;9.50;90.60
46440;DHT22;32138;50.966;6.968;2022-09-29T05:49:45;9.50;90.80
46440;DHT22;32138;50.966;6.968;2022-09-29T05:51:46;9.60;91.00
46440;DHT22;32138;50.966;6.968;2022-09-29T05:53:47;9.40;90.90
46440;DHT22;32138;50.966;6.968;2022-09-29T05:55:48;9.40;90.90
46440;DHT22;32138;50.966;6.968;2022-09-29T05:57:49;9.40;90.80
46440;DHT22;32138;50.966;6.968;2022-09-29T05:59:50;9.40;90.80
46440;DHT22;32138;50.966;6.968;2022-09-29T06:01:50;9.30;91.20
46440;DHT22;32138;50.966;6.968;2022-09-29T06:03:55;9.40;90.90
46440;DHT22;32138;50.966;6.968;2022-09-29T06:05:56;9.40;90.90
46440;DHT22;32138;50.966;6.968;2022-09-29T06:07:57;9.00;91.20
46440;DHT22;32138;50.966;6.968;2022-09-29T06:09:58;9.20;91.20
46440;DHT22;32138;50.966;6.968;2022-09-29T06:11:58;9.20;91.20
46440;DHT22;32138;50.966;6.968;2022-09-29T06:14:00;9.10;91.20
46440;DHT22;32138;50.966;6.968;2022-09-29T06:16:01;8.80;91.70
46440;DHT22;32138;50.966;6.968;2022-09-29T06:18:02;9.00;91.80
46440;DHT22;32138;50.966;6.968;2022-09-29T06:20:04;9.00;91.70
46440;DHT22;32138;50.966;6.968;2022-09-29T06:22:06;9.20;91.50
46440;DHT22;32138;50.966;6.968;2022-09-29T06:24:07;9.20;91.60
46440;DHT22;32138;50.966;6.968;2022-09-29T06:26:10;9.10;91.60
46440;DHT22;32138;50.966;6.968;2022-09-29T06:28:12;9.20;91.90
46440;DHT22;32138;50.966;6.968;2022-09-29T06:30:13;9.40;91.60
46440;DHT22;32138;50.966;6.968;2022-09-29T06:32:14;9.20;91.60
46440;DHT22;32138;50.966;6.968;2022-09-29T06:34:15;9.10;91.90
46440;DHT22;32138;50.966;6.968;2022-09-29T06:36:34;8.80;92.20
46440;DHT22;32138;50.966;6.968;2022-09-29T06:38:54;9.00;92.20
46440;DHT22;32138;50.966;6.968;2022-09-29T06:40:56;9.10;92.10
46440;DHT22;32138;50.966;6.968;2022-09-29T06:42:57;9.00;92.10
46440;DHT22;32138;50.966;6.968;2022-09-29T06:44:57;9.10;92.20
46440;DHT22;32138;50.966;6.968;2022-09-29T06:46:58;9.20;92.20
46440;DHT22;32138;50.966;6.968;2022-09-29T06:48:59;9.30;92.00
46440;DHT22;32138;50.966;6.968;2022-09-29T06:51:00;9.40;91.80
46440;DHT22;32138;50.966;6.968;2022-09-29T06:53:01;9.40;91.90
46440;DHT22;32138;50.966;6.968;2022-09-29T06:55:01;9.40;91.80
46440;DHT22;32138;50.966;6.968;2022-09-29T06:57:02;9.50;91.70
46440;DHT22;32138;50.966;6.968;2022-09-29T06:59:03;9.50;91.60
46440;DHT22;32138;50.966;6.968;2022-09-29T07:01:04;9.40;91.70
46440;DHT22;32138;50.966;6.968;2022-09-29T07:03:05;9.20;91.90
46440;DHT22;32138;50.966;6.968;2022-09-29T07:05:06;9.30;91.90
46440;DHT22;32138;50.966;6.968;2022-09-29T07:07:07;9.20;91.50
46440;DHT22;32138;50.966;6.968;2022-09-29T07:09:07;9.20;92.00
46440;DHT22;32138;50.966;6.968;2022-09-29T07:11:14;9.40;91.90
46440;DHT22;32138;50.966;6.968;2022-09-29T07:13:15;9.50;91.70
46440;DHT22;32138;50.966;6.968;2022-09-29T07:15:16;9.40;91.70
46440;DHT22;32138;50.966;6.968;2022-09-29T07:17:17;9.30;91.60
46440;DHT22;32138;50.966;6.968;2022-09-29T07:19:18;9.30;91.90
46440;DHT22;32138;50.966;6.968;2022-09-29T07:21:19;9.50;91.80
46440;DHT22;32138;50.966;6.968;2022-09-29T07:23:20;9.40;91.70
46440;DHT22;32138;50.966;6.968;2022-09-29T07:25:21;9.40;91.80
46440;DHT22;32138;50.966;6.968;2022-09-29T07:27:22;9.50;91.60
46440;DHT22;32138;50.966;6.968;2022-09-29T07:29:23;9.40;91.60
46440;DHT22;32138;50.966;6.968;2022-09-29T07:31:24;9.30;91.80
46440;DHT22;32138;50.966;6.968;2022-09-29T07:33:25;9.20;92.30
46440;DHT22;32138;50.966;6.968;2022-09-29T07:35:25;9.30;92.10
46440;DHT22;32138;50.966;6.968;2022-09-29T07:37:27;9.40;92.00
46440;DHT22;32138;50.966;6.968;2022-09-29T07:39:28;9.30;91.80
46440;DHT22;32138;50.966;6.968;2022-09-29T07:41:29;9.30;92.30
46440;DHT22;32138;50.966;6.968;2022-09-29T07:43:30;9.30;92.20
46440;DHT22;32138;50.966;6.968;2022-09-29T07:45:31;9.50;92.20
46440;DHT22;32138;50.966;6.968;2022-09-29T07:47:32;9.70;91.90
46440;DHT22;32138;50.966;6.968;2022-09-29T07:49:33;9.80;91.70
46440;DHT22;32138;50.966;6.968;2022-09-29T07:51:34;9.90;91.60
46440;DHT22;32138;50.966;6.968;2022-09-29T07:53:35;9.90;91.70
46440;DHT22;32138;50.966;6.968;2022-09-29T07:55:36;9.90;91.70
46440;DHT22;32138;50.966;6.968;2022-09-29T07:57:38;9.80;91.80
46440;DHT22;32138;50.966;6.968;2022-09-29T07:59:38;9.80;91.60
46440;DHT22;32138;50.966;6.968;2022-09-29T08:01:39;9.70;92.00
46440;DHT22;32138;50.966;6.968;2022-09-29T08:03:42;9.80;92.00
46440;DHT22;32138;50.966;6.968;2022-09-29T08:05:44;9.70;91.70
46440;DHT22;32138;50.966;6.968;2022-09-29T08:07:50;9.60;91.90
46440;DHT22;32138;50.966;6.968;2022-09-29T08:09:51;9.70;91.80
46440;DHT22;32138;50.966;6.968;2022-09-29T08:11:52;9.90;91.70
46440;DHT22;32138;50.966;6.968;2022-09-29T08:13:53;10.10;91.50
46440;DHT22;32138;50.966;6.968;2022-09-29T08:16:00;9.90;91.60
46440;DHT22;32138;50.966;6.968;2022-09-29T08:18:02;9.90;91.60
46440;DHT22;32138;50.966;6.968;2022-09-29T08:20:03;9.90;91.50
46440;DHT22;32138;50.966;6.968;2022-09-29T08:22:04;10.00;91.80
46440;DHT22;32138;50.966;6.968;2022-09-29T08:24:05;10.00;91.70
46440;DHT22;32138;50.966;6.968;2022-09-29T08:26:08;10.00;91.70
46440;DHT22;32138;50.966;6.968;2022-09-29T08:28:10;10.10;91.60
46440;DHT22;32138;50.966;6.968;2022-09-29T08:30:11;10.10;91.60
46440;DHT22;32138;50.966;6.968;2022-09-29T08:32:13;10.10;91.70
46440;DHT22;32138;50.966;6.968;2022-09-29T08:34:14;10.10;91.80
46440;DHT22;32138;50.966;6.968;2022-09-29T08:36:19;10.20;91.70
46440;DHT22;32138;50.966;6.968;2022-09-29T08:38:20;10.10;91.70
46440;DHT22;32138;50.966;6.968;2022-09-29T08:40:21;10.00;91.90
46440;DHT22;32138;50.966;6.968;2022-09-29T08:42:24;10.20;91.90
46440;DHT22;32138;50.966;6.968;2022-09-29T08:49:26;10.40;92.40
46440;DHT22;32138;50.966;6.968;2022-09-29T08:51:38;10.60;92.50
46440;DHT22;32138;50.966;6.968;2022-09-29T08:53:44;10.70;92.00
46440;DHT22;32138;50.966;6.968;2022-09-29T08:58:15;11.10;91.60
46440;DHT22;32138;50.966;6.968;2022-09-29T09:00:17;11.00;91.10
46440;DHT22;32138;50.966;6.968;2022-09-29T09:02:43;11.20;91.00
46440;DHT22;32138;50.966;6.968;2022-09-29T09:19:40;12.30;89.50
46440;DHT22;32138;50.966;6.968;2022-09-29T09:22:19;12.20;88.80
46440;DHT22;32138;50.966;6.968;2022-09-29T09:24:44;12.50;88.60
46440;DHT22;32138;50.966;6.968;2022-09-29T09:26:47;12.50;88.80
46440;DHT22;32138;50.966;6.968;2022-09-29T09:28:50;12.60;88.90
46440;DHT22;32138;50.966;6.968;2022-09-29T09:31:00;12.70;88.00
46440;DHT22;32138;50.966;6.968;2022-09-29T09:35:52;12.90;87.70
46440;DHT22;32138;50.966;6.968;2022-09-29T09:38:17;13.10;86.70
46440;DHT22;32138;50.966;6.968;2022-09-29T09:40:24;13.10;86.70
46440;DHT22;32138;50.966;6.968;2022-09-29T09:42:33;13.00;87.10
46440;DHT22;32138;50.966;6.968;2022-09-29T09:44:43;13.00;87.50
46440;DHT22;32138;50.966;6.968;2022-09-29T09:47:22;13.10;86.40
46440;DHT22;32138;50.966;6.968;2022-09-29T09:53:25;13.20;86.90
46440;DHT22;32138;50.966;6.968;2022-09-29T09:55:48;13.40;86.10
46440;DHT22;32138;50.966;6.968;2022-09-29T10:02:03;13.40;84.20
46440;DHT22;32138;50.966;6.968;2022-09-29T10:04:40;13.60;84.20
46440;DHT22;32138;50.966;6.968;2022-09-29T10:10:22;13.90;84.20
46440;DHT22;32138;50.966;6.968;2022-09-29T10:12:38;14.20;83.20
46440;DHT22;32138;50.966;6.968;2022-09-29T10:14:58;14.40;82.00
46440;DHT22;32138;50.966;6.968;2022-09-29T10:24:32;16.60;73.90
46440;DHT22;32138;50.966;6.968;2022-09-29T10:52:25;15.20;75.60
46440;DHT22;32138;50.966;6.968;2022-09-29T10:54:39;15.40;73.80
46440;DHT22;32138;50.966;6.968;2022-09-29T10:57:23;15.10;75.70
46440;DHT22;32138;50.966;6.968;2022-09-29T11:02:38;15.10;73.80
46440;DHT22;32138;50.966;6.968;2022-09-29T11:05:27;15.20;75.00
46440;DHT22;32138;50.966;6.968;2022-09-29T11:11:39;15.20;73.50
46440;DHT22;32138;50.966;6.968;2022-09-29T11:13:53;15.40;73.40
46440;DHT22;32138;50.966;6.968;2022-09-29T11:16:13;15.40;71.50
46440;DHT22;32138;50.966;6.968;2022-09-29T11:30:14;17.40;66.10
46440;DHT22;32138;50.966;6.968;2022-09-29T11:37:39;18.50;63.30
46440;DHT22;32138;50.966;6.968;2022-09-29T11:45:01;17.80;65.10
46440;DHT22;32138;50.966;6.968;2022-09-29T11:47:12;17.80;60.50
46440;DHT22;32138;50.966;6.968;2022-09-29T12:05:02;16.40;60.50
46440;DHT22;32138;50.966;6.968;2022-09-29T12:15:48;17.20;59.60
46440;DHT22;32138;50.966;6.968;2022-09-29T12:17:57;17.70;58.30
46440;DHT22;32138;50.966;6.968;2022-09-29T12:20:29;17.40;59.10
46440;DHT22;32138;50.966;6.968;2022-09-29T12:41:03;17.30;60.60
46440;DHT22;32138;50.966;6.968;2022-09-29T12:43:52;17.40;61.20
46440;DHT22;32138;50.966;6.968;2022-09-29T13:35:48;16.00;61.70
46440;DHT22;32138;50.966;6.968;2022-09-29T13:37:56;16.20;62.60
46440;DHT22;32138;50.966;6.968;2022-09-29T13:40:07;16.30;61.70
46440;DHT22;32138;50.966;6.968;2022-09-29T13:44:42;16.10;60.30
46440;DHT22;32138;50.966;6.968;2022-09-29T13:47:31;16.00;60.90
46440;DHT22;32138;50.966;6.968;2022-09-29T13:49:32;16.00;62.60
46440;DHT22;32138;50.966;6.968;2022-09-29T13:51:51;16.00;62.00
46440;DHT22;32138;50.966;6.968;2022-09-29T13:56:39;16.00;62.10
46440;DHT22;32138;50.966;6.968;2022-09-29T14:00:44;16.20;63.30
46440;DHT22;32138;50.966;6.968;2022-09-29T14:03:05;16.30;63.60
46440;DHT22;32138;50.966;6.968;2022-09-29T14:07:45;16.10;62.60
46440;DHT22;32138;50.966;6.968;2022-09-29T14:09:48;16.10;62.70
46440;DHT22;32138;50.966;6.968;2022-09-29T14:11:51;16.10;63.70
46440;DHT22;32138;50.966;6.968;2022-09-29T14:18:52;16.00;63.80
46440;DHT22;32138;50.966;6.968;2022-09-29T14:21:11;16.20;63.50
46440;DHT22;32138;50.966;6.968;2022-09-29T14:23:13;16.50;63.20
46440;DHT22;32138;50.966;6.968;2022-09-29T14:27:30;16.40;62.90
46440;DHT22;32138;50.966;6.968;2022-09-29T14:29:33;16.40;63.30
46440;DHT22;32138;50.966;6.968;2022-09-29T14:31:34;16.20;63.70
46440;DHT22;32138;50.966;6.968;2022-09-29T14:33:41;16.00;64.20
46440;DHT22;32138;50.966;6.968;2022-09-29T14:38:22;15.90;66.00
46440;DHT22;32138;50.966;6.968;2022-09-29T14:40:30;15.90;66.20
46440;DHT22;32138;50.966;6.968;2022-09-29T14:42:32;15.90;67.10
46440;DHT22;32138;50.966;6.968;2022-09-29T14:44:38;15.90;67.30
46440;DHT22;32138;50.966;6.968;2022-09-29T14:50:50;15.80;66.40
46440;DHT22;32138;50.966;6.968;2022-09-29T14:53:37;15.80;66.30
46440;DHT22;32138;50.966;6.968;2022-09-29T15:01:09;15.70;65.80
46440;DHT22;32138;50.966;6.968;2022-09-29T15:03:25;15.70;66.60
46440;DHT22;32138;50.966;6.968;2022-09-29T15:05:33;15.70;65.70
46440;DHT22;32138;50.966;6.968;2022-09-29T15:07:40;15.70;67.20
46440;DHT22;32138;50.966;6.968;2022-09-29T15:09:46;15.70;66.10
46440;DHT22;32138;50.966;6.968;2022-09-29T15:11:52;15.70;66.10
46440;DHT22;32138;50.966;6.968;2022-09-29T15:13:57;15.70;65.90
46440;DHT22;32138;50.966;6.968;2022-09-29T15:16:04;15.80;67.30
46440;DHT22;32138;50.966;6.968;2022-09-29T15:21:11;16.00;65.90
46440;DHT22;32138;50.966;6.968;2022-09-29T15:25:54;16.00;65.60
46440;DHT22;32138;50.966;6.968;2022-09-29T15:30:40;16.10;63.90
46440;DHT22;32138;50.966;6.968;2022-09-29T15:32:41;16.00;61.50
46440;DHT22;32138;50.966;6.968;2022-09-29T15:34:43;16.00;63.20
46440;DHT22;32138;50.966;6.968;2022-09-29T15:36:49;16.00;63.10
46440;DHT22;32138;50.966;6.968;2022-09-29T15:39:01;16.00;63.30
46440;DHT22;32138;50.966;6.968;2022-09-29T15:43:24;16.00;63.30
46440;DHT22;32138;50.966;6.968;2022-09-29T15:45:27;15.90;63.00
46440;DHT22;32138;50.966;6.968;2022-09-29T15:47:38;15.90;63.60
46440;DHT22;32138;50.966;6.968;2022-09-29T15:49:49;15.90;63.20
46440;DHT22;32138;50.966;6.968;2022-09-29T15:51:55;15.90;62.90
46440;DHT22;32138;50.966;6.968;2022-09-29T15:54:01;15.80;62.00
46440;DHT22;32138;50.966;6.968;2022-09-29T15:56:04;15.80;62.20
46440;DHT22;32138;50.966;6.968;2022-09-29T16:02:41;15.70;63.10
46440;DHT22;32138;50.966;6.968;2022-09-29T16:04:44;15.60;62.90
46440;DHT22;32138;50.966;6.968;2022-09-29T16:06:46;15.60;63.10
46440;DHT22;32138;50.966;6.968;2022-09-29T16:08:50;15.60;62.80
46440;DHT22;32138;50.966;6.968;2022-09-29T16:11:07;15.60;62.50
46440;DHT22;32138;50.966;6.968;2022-09-29T16:13:18;15.50;62.20
46440;DHT22;32138;50.966;6.968;2022-09-29T16:15:34;15.50;62.90
46440;DHT22;32138;50.966;6.968;2022-09-29T16:17:36;15.50;63.00
46440;DHT22;32138;50.966;6.968;2022-09-29T16:19:37;15.40;63.50
46440;DHT22;32138;50.966;6.968;2022-09-29T16:21:42;15.40;63.50
46440;DHT22;32138;50.966;6.968;2022-09-29T16:23:49;15.40;63.40
46440;DHT22;32138;50.966;6.968;2022-09-29T16:28:24;15.40;62.50
46440;DHT22;32138;50.966;6.968;2022-09-29T16:30:31;15.40;63.80
46440;DHT22;32138;50.966;6.968;2022-09-29T16:32:36;15.30;64.30
46440;DHT22;32138;50.966;6.968;2022-09-29T16:34:39;15.30;64.80
46440;DHT22;32138;50.966;6.968;2022-09-29T16:36:40;15.30;65.00
46440;DHT22;32138;50.966;6.968;2022-09-29T16:38:51;15.30;65.50
46440;DHT22;32138;50.966;6.968;2022-09-29T16:40:53;15.20;66.00
46440;DHT22;32138;50.966;6.968;2022-09-29T16:42:57;15.20;66.00
46440;DHT22;32138;50.966;6.968;2022-09-29T16:44:58;15.20;65.90
46440;DHT22;32138;50.966;6.968;2022-09-29T16:47:13;15.20;66.40
46440;DHT22;32138;50.966;6.968;2022-09-29T16:49:30;15.20;66.70
46440;DHT22;32138;50.966;6.968;2022-09-29T16:51:42;15.10;66.90
46440;DHT22;32138;50.966;6.968;2022-09-29T16:53:45;15.00;67.60
46440;DHT22;32138;50.966;6.968;2022-09-29T16:56:14;15.00;67.90
46440;DHT22;32138;50.966;6.968;2022-09-29T16:58:18;15.00;68.20
46440;DHT22;32138;50.966;6.968;2022-09-29T17:00:18;14.90;69.30
46440;DHT22;32138;50.966;6.968;2022-09-29T17:02:20;14.80;70.10
46440;DHT22;32138;50.966;6.968;2022-09-29T17:04:21;14.80;70.40
46440;DHT22;32138;50.966;6.968;2022-09-29T17:06:22;14.80;70.90
46440;DHT22;32138;50.966;6.968;2022-09-29T17:08:25;14.70;70.80
46440;DHT22;32138;50.966;6.968;2022-09-29T17:10:27;14.70;70.80
46440;DHT22;32138;50.966;6.968;2022-09-29T17:12:29;14.70;71.20
46440;DHT22;32138;50.966;6.968;2022-09-29T17:14:30;14.60;72.00
46440;DHT22;32138;50.966;6.968;2022-09-29T17:16:31;14.60;72.60
46440;DHT22;32138;50.966;6.968;2022-09-29T17:18:32;14.50;73.10
46440;DHT22;32138;50.966;6.968;2022-09-29T17:20:33;14.40;73.30
46440;DHT22;32138;50.966;6.968;2022-09-29T17:22:34;14.40;73.40
46440;DHT22;32138;50.966;6.968;2022-09-29T17:24:39;14.30;73.80
46440;DHT22;32138;50.966;6.968;2022-09-29T17:26:43;14.30;74.00
46440;DHT22;32138;50.966;6.968;2022-09-29T17:29:04;14.30;74.50
46440;DHT22;32138;50.966;6.968;2022-09-29T17:31:05;14.30;75.00
46440;DHT22;32138;50.966;6.968;2022-09-29T17:33:09;14.30;75.00
46440;DHT22;32138;50.966;6.968;2022-09-29T17:35:18;14.30;75.40
46440;DHT22;32138;50.966;6.968;2022-09-29T17:37:20;14.10;75.90
46440;DHT22;32138;50.966;6.968;2022-09-29T17:39:21;14.10;75.90
46440;DHT22;32138;50.966;6.968;2022-09-29T17:41:22;14.00;76.00
46440;DHT22;32138;50.966;6.968;2022-09-29T17:43:23;13.90;76.40
46440;DHT22;32138;50.966;6.968;2022-09-29T17:45:24;13.90;76.20
46440;DHT22;32138;50.966;6.968;2022-09-29T17:47:25;13.80;76.80
46440;DHT22;32138;50.966;6.968;2022-09-29T17:49:25;13.70;77.20